Airfield :
LOGIN :

Register | Disclaimer

   EN    FR    IT 

 










Legend :    VFR   Marginal VFR   IFR   Intensive IFR   Very Intensive IFR
Visi :
Ceiling :
>= 8 km
>= 3000ft
5 to 8 km
1000 to 3000 ft
1500m to 5 km
500 to 1000 ft
800 to 1500m
200 to 500 ft
< 800m
< 200 ft
Symbols :   Thunderstorms  Fog  Heavy snow  Heavy precipitations  Wind > 20 kt
SIGMETs :     Misc.  Thunderstorms  Icing  Turbulence  Mountain Waves  Volcanic Ashes







- Airport Elevation : 425 ft
- IATA code : DTM


EDLW - Dortmund

CURRENT METAR :
  • 121350Z 25012KT 9999 BKN012 OVC049 02/M00 Q1008

EXPIRED METARs :
  • 121320Z 25013KT 220V280 9999 -DZ BKN012 02/M00 Q1007
  • 121250Z 25013KT 9999 OVC011 02/M00 Q1007
  • 121220Z 25012KT 9999 OVC010 02/M00 Q1006
  • 121150Z 25012KT 220V280 9999 OVC010 02/M00 Q1006
  • 121120Z 25014KT 9999 OVC009 02/00 Q1005

TAF TAF EDLW
Valid from the 12 at 12:00 until the 13 at 12:00 UTC


121100Z 1212/1312 23011KT 9999 BKN010
TEMPO 1212/1214 25015G25KT 4000 SHRASN BKN008CB
BECMG 1212/1215 BKN015
BECMG 1303/1306 19020G30KT
No reported NOTAMs for that airfield.



MET'MAP, your aeronautical weather chart ! - Copyright ORBIFLY December 2007 - Disclaimer

ORBIFLY MET'MAP TEAM :

Programming & Development : Alexandra Zaïnal
Concept & Development : Baudouin d'Aumeries
Co-Development & Prog : Marc-Olivier Méhu
Technical & hardware support : Manuel Goepfert

Contact : metmap@orbifly.com




SOURCES & CREDITS :

   NOAA